This is the latest recevied weather packets stored in our database for station/object ANJALA. If no packets are shown the sender has not sent any weather packets the latest 10 day(s).
| Time | Temp. | Humidity | Pressure | Rain* | Wind** | Luminosity | Snow |
|---|---|---|---|---|---|---|---|
| 1788354273 | 18.33° C | 61% | - | 0 mm | - | - | - |
| 1788353074 | 18.33° C | 61% | - | 0 mm | - | - | - |
| 1788351872 | 18.33° C | 61% | - | 0 mm | - | - | - |
| 1788350672 | 18.33° C | 62% | - | 0 mm | - | - | - |
| 1788349473 | 18.89° C | 62% | - | 0 mm | - | - | - |
| 1788348273 | 18.89° C | 58% | - | 0 mm | - | - | - |
| 1788347073 | 18.33° C | 59% | - | 0 mm | - | - | - |
| 1788345872 | 17.78° C | 65% | - | 0 mm | - | - | - |
| 1788344672 | 18.33° C | 66% | - | 0 mm | - | - | - |
| 1788343472 | 17.78° C | 69% | - | 0 mm | - | - | - |
| 1788341073 | 16.11° C | 78% | - | 0 mm | - | - | - |
| 1788338672 | 14.44° C | 87% | - | 0 mm | - | - | - |
| 1788337473 | 14.44° C | 89% | - | 0 mm | - | - | - |
| 1788335072 | 14.44° C | 92% | - | 0 mm | - | - | - |
| 1788333871 | 14.44° C | 94% | - | 0 mm | - | - | - |
| 1788332672 | 14.44° C | 96% | - | 0 mm | - | - | - |
| 1788331471 | 13.33° C | 100% | - | 0 mm | - | - | - |
| 1788330272 | 13.33° C | 100% | - | 0 mm | - | - | - |
| 1788329073 | 13.33° C | 100% | - | 0 mm | - | - | - |
| 1788327872 | 13.33° C | 100% | - | 0 mm | - | - | - |
| 1788326673 | 12.78° C | 100% | - | 0 mm | - | - | - |
| 1788324271 | 12.78° C | 100% | - | 0 mm | - | - | - |
| 1788323072 | 12.78° C | 100% | - | 0 mm | - | - | - |
| 1788321872 | 12.78° C | 100% | - | 0 mm | - | - | - |
| 1788320672 | 12.78° C | 100% | - | 0 mm | - | - | - |
* Rain latest hour (hover to see other rain measurements)
** Current wind speed in m/s (hover to see current wind gust speed)